createdAt,value
2023-04-26T03:31:52.051Z,14.59
2023-04-26T03:37:34.358Z,14.57
2023-04-26T03:48:59.046Z,14.54
2023-04-26T03:55:01.758Z,14.51
2023-04-26T04:23:10.026Z,14.43
2023-04-26T04:28:37.469Z,14.44
2023-04-26T05:59:32.254Z,14.38
2023-04-26T06:23:30.765Z,14.57
2023-04-26T06:28:35.424Z,14.62
2023-04-26T06:33:50.394Z,14.67
2023-04-26T06:39:18.766Z,14.70
2023-04-26T06:44:23.369Z,14.70
2023-04-26T06:49:32.971Z,14.68
2023-04-26T06:54:56.577Z,14.68
2023-04-26T06:59:59.781Z,14.74
2023-04-26T07:05:10.729Z,14.74
2023-04-26T07:10:18.998Z,14.76
2023-04-26T07:15:30.789Z,14.80
2023-04-26T07:20:44.824Z,14.83
2023-04-26T07:25:52.284Z,14.86
2023-04-26T07:30:56.755Z,14.92
2023-04-26T07:36:14.277Z,14.99
2023-04-26T07:41:31.522Z,15.03
2023-04-26T07:46:51.201Z,15.10
2023-04-26T07:52:26.015Z,15.12
2023-04-26T08:14:46.474Z,15.16
2023-04-26T08:20:08.000Z,15.16
2023-04-26T09:07:11.994Z,15.19
2023-04-26T09:12:31.460Z,15.16
2023-04-26T09:17:37.552Z,15.17
2023-04-26T09:22:50.121Z,15.17
2023-04-26T09:27:56.297Z,15.19
2023-04-26T09:33:18.698Z,15.19
2023-04-26T09:50:28.734Z,15.23
2023-04-26T10:09:06.870Z,15.18
2023-04-26T10:32:36.711Z,15.23
2023-04-26T10:38:12.729Z,15.23
2023-04-26T10:43:18.698Z,15.23
2023-04-26T10:48:44.244Z,15.23
2023-04-26T10:53:51.628Z,15.29
2023-04-26T11:00:16.815Z,15.26
2023-04-26T11:11:39.430Z,15.32
2023-04-26T14:31:01.865Z,15.60
2023-04-26T15:28:28.640Z,15.61
2023-04-26T16:47:20.077Z,15.63
2023-04-26T17:34:14.308Z,15.65
2023-04-26T17:39:17.265Z,15.64
2023-04-26T17:44:30.626Z,15.65
2023-04-26T17:49:36.247Z,15.66
2023-04-26T17:54:40.321Z,15.65
2023-04-26T18:00:03.331Z,15.67
2023-04-26T18:05:21.876Z,15.66
2023-04-26T18:10:32.495Z,15.67
2023-04-26T18:15:38.189Z,15.67
2023-04-26T18:20:40.555Z,15.67
2023-04-26T18:25:42.606Z,15.67
2023-04-26T18:30:44.638Z,15.65
2023-04-26T18:35:48.821Z,15.67
2023-04-26T18:40:59.913Z,15.66
2023-04-26T18:46:47.979Z,15.66
2023-04-26T18:52:04.215Z,15.66
2023-04-26T18:57:08.514Z,15.66
2023-04-26T19:02:11.155Z,15.65
2023-04-26T19:07:20.167Z,15.65
2023-04-26T19:12:23.312Z,15.65
2023-04-26T19:17:30.760Z,15.65
2023-04-26T19:22:39.513Z,15.64
2023-04-26T19:27:42.513Z,15.64
2023-04-26T19:32:47.228Z,15.63
2023-04-26T20:01:11.164Z,15.60
2023-04-26T20:18:57.372Z,15.58
2023-04-26T20:24:39.616Z,15.58
2023-04-26T20:29:45.948Z,15.57
2023-04-26T20:58:30.977Z,15.54
2023-04-26T21:35:16.478Z,15.45
2023-04-26T21:45:49.755Z,15.43
2023-04-26T21:51:03.599Z,15.44
2023-04-26T21:56:14.522Z,15.44
2023-04-26T22:01:18.658Z,15.41
2023-04-26T22:06:24.007Z,15.42
2023-04-26T22:11:31.446Z,15.40
2023-04-26T22:16:36.179Z,15.41
2023-04-26T22:21:42.589Z,15.39
2023-04-26T22:26:45.050Z,15.35
2023-04-26T22:32:01.406Z,15.37
2023-04-26T22:37:20.319Z,15.32
2023-04-26T22:42:27.089Z,15.32
2023-04-26T22:47:38.081Z,15.33
2023-04-26T22:52:41.555Z,15.31
2023-04-26T22:57:49.212Z,15.30
2023-04-26T23:02:54.003Z,15.29
2023-04-26T23:08:02.111Z,15.24
2023-04-26T23:13:10.913Z,15.25
2023-04-26T23:18:13.403Z,15.19
2023-04-26T23:23:18.195Z,15.21
2023-04-26T23:28:20.716Z,15.19
2023-04-26T23:33:23.234Z,15.21
2023-04-26T23:38:26.881Z,15.20
2023-04-26T23:43:33.178Z,15.18
2023-04-26T23:48:34.994Z,15.16
2023-04-26T23:53:37.329Z,15.16
2023-04-26T23:58:40.176Z,15.15
